sensor_id;sensor_type;location;lat;lon;timestamp;pressure;altitude;pressure_sealevel;temperature;humidity
68380;BME280;57711;53.196;19.638;2023-11-21T00:02:17;99595.34;;;1.79;69.49
68380;BME280;57711;53.196;19.638;2023-11-21T00:04:43;99595.63;;;1.77;69.50
68380;BME280;57711;53.196;19.638;2023-11-21T00:07:09;99602.15;;;1.75;69.54
68380;BME280;57711;53.196;19.638;2023-11-21T00:09:36;99608.67;;;1.74;69.49
68380;BME280;57711;53.196;19.638;2023-11-21T00:12:03;99609.03;;;1.74;69.44
68380;BME280;57711;53.196;19.638;2023-11-21T00:14:29;99611.27;;;1.72;69.33
68380;BME280;57711;53.196;19.638;2023-11-21T00:16:56;99611.52;;;1.71;69.34
68380;BME280;57711;53.196;19.638;2023-11-21T00:19:22;99616.13;;;1.68;69.43
68380;BME280;57711;53.196;19.638;2023-11-21T00:21:49;99620.66;;;1.67;69.51
68380;BME280;57711;53.196;19.638;2023-11-21T00:24:15;99617.14;;;1.66;69.50
68380;BME280;57711;53.196;19.638;2023-11-21T00:26:41;99613.13;;;1.65;69.44
68380;BME280;57711;53.196;19.638;2023-11-21T00:29:08;99612.02;;;1.65;69.46
68380;BME280;57711;53.196;19.638;2023-11-21T00:31:34;99619.42;;;1.67;69.42
68380;BME280;57711;53.196;19.638;2023-11-21T00:34:05;99624.75;;;1.67;69.33
68380;BME280;57711;53.196;19.638;2023-11-21T00:36:31;99624.48;;;1.68;69.39
68380;BME280;57711;53.196;19.638;2023-11-21T00:38:58;99623.73;;;1.66;69.36
68380;BME280;57711;53.196;19.638;2023-11-21T00:41:25;99618.52;;;1.64;69.32
68380;BME280;57711;53.196;19.638;2023-11-21T00:43:54;99618.77;;;1.63;69.50
68380;BME280;57711;53.196;19.638;2023-11-21T00:46:21;99622.74;;;1.62;69.53
68380;BME280;57711;53.196;19.638;2023-11-21T00:48:48;99623.73;;;1.63;69.35
68380;BME280;57711;53.196;19.638;2023-11-21T00:51:16;99625.05;;;1.65;69.43
68380;BME280;57711;53.196;19.638;2023-11-21T00:53:43;99629.26;;;1.66;69.39
68380;BME280;57711;53.196;19.638;2023-11-21T00:56:09;99633.08;;;1.68;69.40
68380;BME280;57711;53.196;19.638;2023-11-21T00:58:36;99639.20;;;1.67;69.45
68380;BME280;57711;53.196;19.638;2023-11-21T01:01:02;99638.95;;;1.63;69.25
68380;BME280;57711;53.196;19.638;2023-11-21T01:03:29;99642.25;;;1.61;69.41
68380;BME280;57711;53.196;19.638;2023-11-21T01:05:56;99649.23;;;1.60;69.28
68380;BME280;57711;53.196;19.638;2023-11-21T01:35:52;99666.58;;;1.50;69.42
68380;BME280;57711;53.196;19.638;2023-11-21T01:38:21;99669.05;;;1.48;69.18
68380;BME280;57711;53.196;19.638;2023-11-21T01:40:48;99666.77;;;1.44;69.18
68380;BME280;57711;53.196;19.638;2023-11-21T01:43:15;99664.52;;;1.44;69.39
68380;BME280;57711;53.196;19.638;2023-11-21T18:23:24;100564.84;;;0.45;65.81
68380;BME280;57711;53.196;19.638;2023-11-21T18:25:51;100570.54;;;0.41;65.81
68380;BME280;57711;53.196;19.638;2023-11-21T18:28:19;100577.14;;;0.40;65.73
68380;BME280;57711;53.196;19.638;2023-11-21T18:30:47;100580.80;;;0.38;65.73
68380;BME280;57711;53.196;19.638;2023-11-21T18:33:15;100587.17;;;0.34;65.79
68380;BME280;57711;53.196;19.638;2023-11-21T18:35:45;100587.70;;;0.30;65.83
68380;BME280;57711;53.196;19.638;2023-11-21T18:38:12;100592.45;;;0.27;65.84
68380;BME280;57711;53.196;19.638;2023-11-21T18:40:40;100595.33;;;0.22;65.81
68380;BME280;57711;53.196;19.638;2023-11-21T18:43:07;100601.05;;;0.21;65.79
68380;BME280;57711;53.196;19.638;2023-11-21T18:45:34;100607.70;;;0.24;65.68
68380;BME280;57711;53.196;19.638;2023-11-21T18:48:02;100609.48;;;0.27;65.79
68380;BME280;57711;53.196;19.638;2023-11-21T18:50:31;100608.97;;;0.31;65.58
68380;BME280;57711;53.196;19.638;2023-11-21T18:52:58;100614.23;;;0.34;65.57
68380;BME280;57711;53.196;19.638;2023-11-21T18:55:26;100622.84;;;0.36;65.58
68380;BME280;57711;53.196;19.638;2023-11-21T18:57:54;100624.52;;;0.39;65.71
68380;BME280;57711;53.196;19.638;2023-11-21T19:00:22;100628.09;;;0.42;65.77
68380;BME280;57711;53.196;19.638;2023-11-21T19:02:49;100636.13;;;0.46;65.57
68380;BME280;57711;53.196;19.638;2023-11-21T19:05:17;100639.48;;;0.47;65.53
68380;BME280;57711;53.196;19.638;2023-11-21T19:07:44;100647.95;;;0.48;65.54
68380;BME280;57711;53.196;19.638;2023-11-21T19:10:11;100652.60;;;0.48;65.60
68380;BME280;57711;53.196;19.638;2023-11-21T19:12:39;100656.66;;;0.44;65.59
68380;BME280;57711;53.196;19.638;2023-11-21T19:15:07;100664.27;;;0.41;65.62
68380;BME280;57711;53.196;19.638;2023-11-21T19:17:44;100672.22;;;0.38;65.56
68380;BME280;57711;53.196;19.638;2023-11-21T19:20:11;100676.10;;;0.34;65.64
68380;BME280;57711;53.196;19.638;2023-11-21T19:22:39;100683.02;;;0.30;65.59
68380;BME280;57711;53.196;19.638;2023-11-21T19:25:07;100689.67;;;0.28;65.65
68380;BME280;57711;53.196;19.638;2023-11-21T19:27:35;100692.25;;;0.25;65.54
68380;BME280;57711;53.196;19.638;2023-11-21T19:30:03;100698.85;;;0.21;65.54
68380;BME280;57711;53.196;19.638;2023-11-21T19:32:31;100702.33;;;0.18;65.71
68380;BME280;57711;53.196;19.638;2023-11-21T19:35:00;100704.53;;;0.16;65.51
68380;BME280;57711;53.196;19.638;2023-11-21T19:37:28;100713.58;;;0.13;65.58
68380;BME280;57711;53.196;19.638;2023-11-21T19:39:56;100714.51;;;0.12;65.56
68380;BME280;57711;53.196;19.638;2023-11-21T19:42:26;100716.36;;;0.14;65.42
68380;BME280;57711;53.196;19.638;2023-11-21T19:44:55;100722.65;;;0.17;65.44
68380;BME280;57711;53.196;19.638;2023-11-21T19:47:23;100727.00;;;0.20;65.47
68380;BME280;57711;53.196;19.638;2023-11-21T19:49:51;100730.53;;;0.20;65.53
68380;BME280;57711;53.196;19.638;2023-11-21T19:52:20;100732.86;;;0.20;65.37
68380;BME280;57711;53.196;19.638;2023-11-21T19:54:48;100740.36;;;0.19;65.45
68380;BME280;57711;53.196;19.638;2023-11-21T19:57:16;100745.39;;;0.18;65.38
68380;BME280;57711;53.196;19.638;2023-11-21T19:59:43;100748.79;;;0.17;65.36
68380;BME280;57711;53.196;19.638;2023-11-21T20:02:12;100753.33;;;0.14;65.24
68380;BME280;57711;53.196;19.638;2023-11-21T20:04:39;100754.92;;;0.10;65.22
68380;BME280;57711;53.196;19.638;2023-11-21T20:07:10;100760.41;;;0.06;65.11
68380;BME280;57711;53.196;19.638;2023-11-21T20:09:37;100764.77;;;0.04;65.21
68380;BME280;57711;53.196;19.638;2023-11-21T20:12:05;100761.80;;;0.02;65.18
68380;BME280;57711;53.196;19.638;2023-11-21T20:14:33;100768.11;;;-0.00;65.23
68380;BME280;57711;53.196;19.638;2023-11-21T20:17:01;100778.59;;;-0.05;65.14
68380;BME280;57711;53.196;19.638;2023-11-21T20:19:30;100780.48;;;-0.07;65.05
68380;BME280;57711;53.196;19.638;2023-11-21T20:21:57;100790.05;;;-0.08;65.14
68380;BME280;57711;53.196;19.638;2023-11-21T20:24:25;100798.02;;;-0.06;65.17
68380;BME280;57711;53.196;19.638;2023-11-21T20:26:52;100795.40;;;-0.08;65.25
68380;BME280;57711;53.196;19.638;2023-11-21T20:29:20;100801.53;;;-0.05;65.22
68380;BME280;57711;53.196;19.638;2023-11-21T20:31:49;100807.10;;;-0.02;65.33
68380;BME280;57711;53.196;19.638;2023-11-21T20:34:17;100810.59;;;0.00;65.32
68380;BME280;57711;53.196;19.638;2023-11-21T20:36:47;100810.96;;;0.00;65.21
68380;BME280;57711;53.196;19.638;2023-11-21T20:39:15;100812.94;;;-0.01;65.12
68380;BME280;57711;53.196;19.638;2023-11-21T20:41:43;100823.79;;;-0.02;65.06
68380;BME280;57711;53.196;19.638;2023-11-21T20:44:11;100820.77;;;-0.02;65.10
68380;BME280;57711;53.196;19.638;2023-11-21T20:46:40;100820.39;;;-0.01;65.10
68380;BME280;57711;53.196;19.638;2023-11-21T20:49:11;100826.34;;;0.02;65.12
68380;BME280;57711;53.196;19.638;2023-11-21T20:51:40;100825.23;;;0.03;65.07
68380;BME280;57711;53.196;19.638;2023-11-21T20:54:07;100825.03;;;0.04;65.13
68380;BME280;57711;53.196;19.638;2023-11-21T20:56:35;100828.36;;;0.05;65.07
68380;BME280;57711;53.196;19.638;2023-11-21T20:59:02;100831.16;;;0.06;65.07
68380;BME280;57711;53.196;19.638;2023-11-21T21:01:34;100839.01;;;0.05;65.00
68380;BME280;57711;53.196;19.638;2023-11-21T21:04:02;100848.77;;;0.01;64.83
68380;BME280;57711;53.196;19.638;2023-11-21T21:06:30;100851.23;;;-0.04;64.78
68380;BME280;57711;53.196;19.638;2023-11-21T21:08:57;100856.45;;;-0.10;64.75
68380;BME280;57711;53.196;19.638;2023-11-21T21:11:28;100861.09;;;-0.15;64.66
68380;BME280;57711;53.196;19.638;2023-11-21T21:13:58;100862.92;;;-0.17;64.70
68380;BME280;57711;53.196;19.638;2023-11-21T21:16:26;100861.01;;;-0.18;64.70
68380;BME280;57711;53.196;19.638;2023-11-21T21:18:54;100864.98;;;-0.20;64.70
68380;BME280;57711;53.196;19.638;2023-11-21T21:21:22;100869.80;;;-0.21;64.80
68380;BME280;57711;53.196;19.638;2023-11-21T21:23:50;100868.08;;;-0.22;64.68
68380;BME280;57711;53.196;19.638;2023-11-21T21:26:17;100872.98;;;-0.25;64.74
68380;BME280;57711;53.196;19.638;2023-11-21T21:28:47;100875.54;;;-0.32;64.59
68380;BME280;57711;53.196;19.638;2023-11-21T21:31:15;100874.94;;;-0.35;64.69
68380;BME280;57711;53.196;19.638;2023-11-21T21:33:42;100872.02;;;-0.40;64.77
68380;BME280;57711;53.196;19.638;2023-11-21T21:36:12;100868.77;;;-0.43;64.66
68380;BME280;57711;53.196;19.638;2023-11-21T21:38:41;100874.62;;;-0.47;64.62
68380;BME280;57711;53.196;19.638;2023-11-21T21:41:10;100878.66;;;-0.51;64.71
68380;BME280;57711;53.196;19.638;2023-11-21T21:43:40;100884.84;;;-0.56;64.59
68380;BME280;57711;53.196;19.638;2023-11-21T21:46:07;100889.61;;;-0.60;64.64
68380;BME280;57711;53.196;19.638;2023-11-21T21:48:35;100896.82;;;-0.63;64.69
68380;BME280;57711;53.196;19.638;2023-11-21T21:51:02;100900.42;;;-0.65;64.60
68380;BME280;57711;53.196;19.638;2023-11-21T21:53:30;100901.09;;;-0.69;64.60
68380;BME280;57711;53.196;19.638;2023-11-21T21:55:57;100898.54;;;-0.73;64.61
68380;BME280;57711;53.196;19.638;2023-11-21T21:58:24;100898.84;;;-0.77;64.56
68380;BME280;57711;53.196;19.638;2023-11-21T22:00:53;100902.72;;;-0.81;64.62
68380;BME280;57711;53.196;19.638;2023-11-21T22:03:21;100905.69;;;-0.85;64.54
68380;BME280;57711;53.196;19.638;2023-11-21T22:05:49;100908.33;;;-0.90;64.49
68380;BME280;57711;53.196;19.638;2023-11-21T22:08:16;100910.64;;;-0.97;64.55
68380;BME280;57711;53.196;19.638;2023-11-21T22:10:44;100915.71;;;-0.99;64.61
68380;BME280;57711;53.196;19.638;2023-11-21T22:13:11;100915.40;;;-1.00;64.53
68380;BME280;57711;53.196;19.638;2023-11-21T22:15:38;100925.03;;;-1.02;64.48
68380;BME280;57711;53.196;19.638;2023-11-21T22:18:07;100929.68;;;-1.04;64.54
68380;BME280;57711;53.196;19.638;2023-11-21T22:20:35;100933.38;;;-1.02;64.41
68380;BME280;57711;53.196;19.638;2023-11-21T22:23:03;100943.21;;;-1.05;64.35
68380;BME280;57711;53.196;19.638;2023-11-21T22:25:30;100948.59;;;-1.06;64.31
68380;BME280;57711;53.196;19.638;2023-11-21T22:27:57;100951.71;;;-1.10;64.28
68380;BME280;57711;53.196;19.638;2023-11-21T22:30:27;100950.67;;;-1.11;64.37
68380;BME280;57711;53.196;19.638;2023-11-21T23:05:23;100982.20;;;-1.60;64.36
68380;BME280;57711;53.196;19.638;2023-11-21T23:07:50;100980.14;;;-1.62;64.38
68380;BME280;57711;53.196;19.638;2023-11-21T23:10:18;100977.17;;;-1.63;64.31
68380;BME280;57711;53.196;19.638;2023-11-21T23:12:45;100982.86;;;-1.64;64.55
68380;BME280;57711;53.196;19.638;2023-11-21T23:15:12;100990.57;;;-1.61;64.36
68380;BME280;57711;53.196;19.638;2023-11-21T23:17:39;100989.86;;;-1.60;64.26
68380;BME280;57711;53.196;19.638;2023-11-21T23:20:07;100986.83;;;-1.60;64.25
68380;BME280;57711;53.196;19.638;2023-11-21T23:22:38;100986.25;;;-1.58;64.47
68380;BME280;57711;53.196;19.638;2023-11-21T23:25:07;100986.95;;;-1.58;64.34
68380;BME280;57711;53.196;19.638;2023-11-21T23:27:35;100986.80;;;-1.59;64.42
68380;BME280;57711;53.196;19.638;2023-11-21T23:30:03;100994.80;;;-1.60;64.28
68380;BME280;57711;53.196;19.638;2023-11-21T23:32:30;100996.41;;;-1.60;64.25
68380;BME280;57711;53.196;19.638;2023-11-21T23:34:57;100992.38;;;-1.62;64.27
68380;BME280;57711;53.196;19.638;2023-11-21T23:37:24;100996.02;;;-1.65;64.29
68380;BME280;57711;53.196;19.638;2023-11-21T23:39:51;101006.47;;;-1.65;64.38
68380;BME280;57711;53.196;19.638;2023-11-21T23:42:18;101002.38;;;-1.64;64.37
68380;BME280;57711;53.196;19.638;2023-11-21T23:44:47;101001.16;;;-1.65;64.37
68380;BME280;57711;53.196;19.638;2023-11-21T23:47:16;101002.55;;;-1.64;64.37
68380;BME280;57711;53.196;19.638;2023-11-21T23:49:44;101005.39;;;-1.64;64.45
68380;BME280;57711;53.196;19.638;2023-11-21T23:52:11;101003.98;;;-1.64;64.58
